Observation data for Knox City on 03/11/2018      Previous  Date  Next       Current Mesonet Observations  Soil Data  Daily Summary Page  Observations in Plain Language
KKN1 110600Z 02012KT 16/03 A2985 RMK A01 T01570026  RH  042%=      5-min Rain = 0
KKN1 110605Z 03011KT 16/04 A2985 RMK A01 T01570041  RH  046%=      5-min Rain = 0
KKN1 110610Z 03012KT 16/05 A2985 RMK A01 T01580052  RH  050%=      5-min Rain = 0
KKN1 110615Z 03013G19KT 16/07 A2986 RMK A01 T01600069  RH  056%=      5-min Rain = 0
KKN1 110620Z 03014KT 16/08 A2986 RMK A01 T01620084  RH  061%=      5-min Rain = 0
KKN1 110625Z 04014KT 17/10 A2986 RMK A01 T01650095  RH  064%=      5-min Rain = 0
KKN1 110630Z 03012KT 16/10 A2986 RMK A01 T01640097  RH  066%=      5-min Rain = 0
KKN1 110635Z 03011KT 16/10 A2987 RMK A01 T01630098  RH  067%=      5-min Rain = 0
KKN1 110640Z 03010KT 16/10 A2987 RMK A01 T01630099  RH  067%=      5-min Rain = 0
KKN1 110645Z 02010KT 16/10 A2988 RMK A01 T01630100  RH  067%=      5-min Rain = 0
KKN1 110650Z 02009G14KT 16/10 A2988 RMK A01 T01630100  RH  068%=      5-min Rain = 0
KKN1 110655Z 02010G15KT 16/10 A2989 RMK A01 T01640102  RH  068%=      5-min Rain = 0
KKN1 110700Z 02012KT 17/10 A2989 RMK A01 T01650103  RH  068%=      5-min Rain = 0
KKN1 110705Z 02013G18KT 17/10 A2989 RMK A01 T01660103  RH  068%=      5-min Rain = 0
KKN1 110710Z 02013KT 17/10 A2989 RMK A01 T01670104  RH  067%=      5-min Rain = 0
KKN1 110715Z 02013G18KT 17/10 A299 RMK A01 T01680104  RH  067%=      5-min Rain = 0
KKN1 110720Z 02014KT 17/10 A299 RMK A01 T01680104  RH  067%=      5-min Rain = 0
KKN1 110725Z 02014G19KT 17/10 A299 RMK A01 T01680104  RH  067%=      5-min Rain = 0
KKN1 110730Z 02012KT 17/10 A2991 RMK A01 T01690104  RH  067%=      5-min Rain = 0
KKN1 110735Z 01012KT 17/10 A2991 RMK A01 T01680104  RH  067%=      5-min Rain = 0
KKN1 110740Z 01013KT 17/10 A2991 RMK A01 T01690104  RH  067%=      5-min Rain = 0
KKN1 110745Z 01015G22KT 17/10 A2992 RMK A01 T01690104  RH  066%=      5-min Rain = 0
KKN1 110750Z 01019G31KT 17/10 A2992 RMK A01 T01710104  RH  066%=      5-min Rain = 0
KKN1 110755Z 01025G34KT 17/09 A2993 RMK A01 T01730091  RH  060%=      5-min Rain = 0
KKN1 110800Z 01025G35KT 17/07 A2993 RMK A01 T01730074  RH  053%=      5-min Rain = 0
KKN1 110805Z 01022G32KT 17/07 A2993 RMK A01 T01710069  RH  052%=      5-min Rain = 0
KKN1 110810Z 01021G29KT 17/06 A2994 RMK A01 T01700059  RH  049%=      5-min Rain = 0
KKN1 110815Z 01020G26KT 17/05 A2994 RMK A01 T01680050  RH  046%=      5-min Rain = 0
KKN1 110820Z 01021G31KT 17/04 A2994 RMK A01 T01670044  RH  045%=      5-min Rain = 0
KKN1 110825Z 01021G29KT 17/04 A2995 RMK A01 T01650038  RH  043%=      5-min Rain = 0
KKN1 110830Z 01023G33KT 16/03 A2995 RMK A01 T01640031  RH  041%=      5-min Rain = 0
KKN1 110835Z 01022G32KT 16/03 A2995 RMK A01 T01620027  RH  041%=      5-min Rain = 0
KKN1 110840Z 01019G27KT 16/03 A2996 RMK A01 T01600025  RH  041%=      5-min Rain = 0
KKN1 110845Z 01023G36KT 16/02 A2996 RMK A01 T01580018  RH  039%=      5-min Rain = 0
KKN1 110850Z 01021G31KT 16/01 A2996 RMK A01 T01560012  RH  038%=      5-min Rain = 0
KKN1 110855Z 02025G34KT 15/00 A2997 RMK A01 T01540003  RH  036%=      5-min Rain = 0
KKN1 110900Z 02023G39KT 15/M00 A2997 RMK A01 T01531002  RH  035%=      5-min Rain = 0
KKN1 110905Z 02024G32KT 15/M01 A2998 RMK A01 T01521007  RH  034%=      5-min Rain = 0
KKN1 110910Z 02021G28KT 15/M01 A2998 RMK A01 T01511009  RH  034%=      5-min Rain = 0
KKN1 110915Z 02023G34KT 15/M01 A2998 RMK A01 T01501011  RH  034%=      5-min Rain = 0
KKN1 110920Z 02025G37KT 15/M01 A2998 RMK A01 T01491013  RH  033%=      5-min Rain = 0
KKN1 110925Z 02024G30KT 15/M02 A2998 RMK A01 T01491015  RH  033%=      5-min Rain = 0
KKN1 110930Z 02025G35KT 15/M02 A2998 RMK A01 T01481015  RH  033%=      5-min Rain = 0
KKN1 110935Z 02025G35KT 15/M02 A2998 RMK A01 T01481017  RH  033%=      5-min Rain = 0
KKN1 110940Z 02022G32KT 15/M02 A2998 RMK A01 T01471017  RH  033%=      5-min Rain = 0
KKN1 110945Z 02024G35KT 15/M02 A2999 RMK A01 T01471017  RH  033%=      5-min Rain = 0
KKN1 110950Z 02023G34KT 15/M02 A2999 RMK A01 T01461017  RH  033%=      5-min Rain = 0
KKN1 110955Z 02023G33KT 15/M02 A30 RMK A01 T01451017  RH  033%=      5-min Rain = 0
KKN1 111000Z 02022G31KT 14/M02 A30 RMK A01 T01441017  RH  033%=      5-min Rain = 0
KKN1 111005Z 02021G29KT 14/M02 A30 RMK A01 T01431017  RH  033%=      5-min Rain = 0
KKN1 111010Z 02020G27KT 14/M02 A3001 RMK A01 T01431017  RH  034%=      5-min Rain = 0
KKN1 111015Z 02019G31KT 14/M02 A3001 RMK A01 T01421016  RH  034%=      5-min Rain = 0
KKN1 111020Z 02020G29KT 14/M02 A3001 RMK A01 T01421016  RH  034%=      5-min Rain = 0
KKN1 111025Z 02021G31KT 14/M02 A3001 RMK A01 T01411016  RH  034%=      5-min Rain = 0
KKN1 111030Z 02019G25KT 14/M02 A3001 RMK A01 T01411016  RH  034%=      5-min Rain = 0
KKN1 111035Z 02022G29KT 14/M02 A3002 RMK A01 T01411018  RH  034%=      5-min Rain = 0
KKN1 111040Z 02017G26KT 14/M02 A3002 RMK A01 T01411018  RH  034%=      5-min Rain = 0
KKN1 111045Z 02016G23KT 14/M02 A3002 RMK A01 T01401018  RH  034%=      5-min Rain = 0
KKN1 111050Z 02017G23KT 14/M02 A3002 RMK A01 T01401019  RH  034%=      5-min Rain = 0
KKN1 111055Z 02017G22KT 14/M02 A3002 RMK A01 T01391020  RH  034%=      5-min Rain = 0
KKN1 111100Z 02018G26KT 14/M02 A3002 RMK A01 T01391021  RH  033%=      5-min Rain = 0
KKN1 111105Z 02017G25KT 14/M02 A3003 RMK A01 T01391022  RH  033%=      5-min Rain = 0
KKN1 111110Z 02017G22KT 14/M02 A3003 RMK A01 T01391022  RH  033%=      5-min Rain = 0
KKN1 111115Z 01015G22KT 14/M02 A3004 RMK A01 T01391023  RH  033%=      5-min Rain = 0
KKN1 111120Z 02018G24KT 14/M02 A3005 RMK A01 T01391024  RH  033%=      5-min Rain = 0
KKN1 111125Z 01015G21KT 14/M02 A3005 RMK A01 T01381023  RH  033%=      5-min Rain = 0
KKN1 111130Z 01017G24KT 14/M02 A3006 RMK A01 T01371022  RH  034%=      5-min Rain = 0
KKN1 111135Z 01016G22KT 14/M02 A3006 RMK A01 T01371022  RH  034%=      5-min Rain = 0
KKN1 111140Z 01018G23KT 14/M02 A3007 RMK A01 T01361021  RH  034%=      5-min Rain = 0
KKN1 111145Z 01016G22KT 14/M02 A3007 RMK A01 T01351020  RH  035%=      5-min Rain = 0
KKN1 111150Z 01016G21KT 13/M02 A3007 RMK A01 T01341018  RH  035%=      5-min Rain = 0
KKN1 111155Z 00021G33KT 13/M02 A3008 RMK A01 T01341017  RH  035%=      5-min Rain = 0
KKN1 111200Z 01019G28KT 13/M02 A3008 RMK A01 T01321017  RH  036%=      5-min Rain = 0
KKN1 111205Z 01019G26KT 13/M02 A3008 RMK A01 T01321018  RH  036%=      5-min Rain = 0
KKN1 111210Z 01019G25KT 13/M02 A3009 RMK A01 T01311020  RH  036%=      5-min Rain = 0
KKN1 111215Z 01018G25KT 13/M02 A3009 RMK A01 T01301020  RH  036%=      5-min Rain = 0
KKN1 111220Z 01023G33KT 13/M02 A3009 RMK A01 T01291023  RH  035%=      5-min Rain = 0
KKN1 111225Z 01022G30KT 13/M02 A3008 RMK A01 T01291024  RH  035%=      5-min Rain = 0
KKN1 111230Z 01021G29KT 13/M02 A3008 RMK A01 T01281024  RH  035%=      5-min Rain = 0
KKN1 111235Z 02024G32KT 13/M03 A3008 RMK A01 T01271025  RH  035%=      5-min Rain = 0
KKN1 111240Z 02022G32KT 13/M02 A3008 RMK A01 T01261024  RH  036%=      5-min Rain = 0
KKN1 111245Z 01021G26KT 13/M02 A3009 RMK A01 T01251023  RH  036%=      5-min Rain = 0
KKN1 111250Z 01024G35KT 12/M02 A3009 RMK A01 T01241024  RH  036%=      5-min Rain = 0
KKN1 111255Z 02026G35KT 12/M02 A301 RMK A01 T01231023  RH  037%=      5-min Rain = 0
KKN1 111300Z 02023G29KT 12/M02 A3011 RMK A01 T01211020  RH  038%=      5-min Rain = 0
KKN1 111305Z 02019G28KT 12/M02 A3011 RMK A01 T01191018  RH  039%=      5-min Rain = 0
KKN1 111310Z 02020G26KT 12/M02 A3012 RMK A01 T01171016  RH  040%=      5-min Rain = 0
KKN1 111315Z 02017G23KT 12/M02 A3012 RMK A01 T01151015  RH  041%=      5-min Rain = 0
KKN1 111320Z 02017G25KT 11/M01 A3013 RMK A01 T01141014  RH  041%=      5-min Rain = 0
KKN1 111325Z 02016G24KT 11/M01 A3013 RMK A01 T01141013  RH  042%=      5-min Rain = 0
KKN1 111330Z 02016G21KT 11/M01 A3014 RMK A01 T01131013  RH  042%=      5-min Rain = 0
KKN1 111335Z 02016G22KT 11/M01 A3014 RMK A01 T01141012  RH  042%=      5-min Rain = 0
KKN1 111340Z 01014G21KT 12/M01 A3015 RMK A01 T01151012  RH  042%=      5-min Rain = 0
KKN1 111345Z 01018G25KT 12/M01 A3015 RMK A01 T01161014  RH  041%=      5-min Rain = 0
KKN1 111350Z 01022G31KT 12/M02 A3015 RMK A01 T01151017  RH  040%=      5-min Rain = 0
KKN1 111355Z 02019G27KT 12/M02 A3015 RMK A01 T01161017  RH  040%=      5-min Rain = 0
KKN1 111400Z 02018G24KT 12/M02 A3016 RMK A01 T01171018  RH  040%=      5-min Rain = 0
KKN1 111405Z 01017G23KT 12/M02 A3016 RMK A01 T01181017  RH  039%=      5-min Rain = 0
KKN1 111410Z 01019G27KT 12/M02 A3016 RMK A01 T01181018  RH  039%=      5-min Rain = 0
KKN1 111415Z 01019G30KT 12/M02 A3016 RMK A01 T01181017  RH  039%=      5-min Rain = 0
KKN1 111420Z 02019G26KT 12/M02 A3017 RMK A01 T01191016  RH  039%=      5-min Rain = 0
KKN1 111425Z 02020G26KT 12/M02 A3017 RMK A01 T01201016  RH  039%=      5-min Rain = 0
KKN1 111430Z 01018G25KT 12/M02 A3017 RMK A01 T01221015  RH  039%=      5-min Rain = 0
KKN1 111435Z 01022G31KT 12/M02 A3018 RMK A01 T01201018  RH  039%=      5-min Rain = 0
KKN1 111440Z 02019G27KT 12/M02 A3019 RMK A01 T01151017  RH  040%=      5-min Rain = 0
KKN1 111445Z 01016G24KT 12/M02 A3019 RMK A01 T01151016  RH  041%=      5-min Rain = 0
KKN1 111450Z 01018G26KT 11/M02 A3019 RMK A01 T01141017  RH  041%=      5-min Rain = 0
KKN1 111455Z 01018G26KT 11/M02 A3019 RMK A01 T01121018  RH  041%=      5-min Rain = 0
KKN1 111500Z 01017G22KT 11/M02 A3019 RMK A01 T01111017  RH  042%=      5-min Rain = 0
KKN1 111505Z 01017G26KT 11/M02 A302 RMK A01 T01101017  RH  042%=      5-min Rain = 0
KKN1 111510Z 01019G26KT 11/M02 A302 RMK A01 T01081019  RH  042%=      5-min Rain = 0
KKN1 111515Z 01019G28KT 11/M02 A302 RMK A01 T01071020  RH  041%=      5-min Rain = 0
KKN1 111520Z 01019G30KT 11/M02 A3021 RMK A01 T01081021  RH  041%=      5-min Rain = 0
KKN1 111525Z 01021G31KT 11/M03 A3022 RMK A01 T01081026  RH  039%=      5-min Rain = 0
KKN1 111530Z 01020G27KT 11/M03 A3022 RMK A01 T01081029  RH  039%=      5-min Rain = 0
KKN1 111535Z 01017G23KT 11/M03 A3023 RMK A01 T01101026  RH  039%=      5-min Rain = 0
KKN1 111540Z 01016G25KT 11/M03 A3023 RMK A01 T01111026  RH  039%=      5-min Rain = 0
KKN1 111545Z 00017G28KT 11/M03 A3023 RMK A01 T01141030  RH  037%=      5-min Rain = 0
KKN1 111550Z 01020G27KT 11/M04 A3023 RMK A01 T01111038  RH  035%=      5-min Rain = 0
KKN1 111555Z 00018G24KT 11/M04 A3024 RMK A01 T01111038  RH  035%=      5-min Rain = 0
KKN1 111600Z 01018G24KT 11/M04 A3024 RMK A01 T01091038  RH  036%=      5-min Rain = 0
KKN1 111605Z 01019G28KT 11/M04 A3024 RMK A01 T01081040  RH  035%=      5-min Rain = 0
KKN1 111610Z 01019G26KT 11/M05 A3024 RMK A01 T01091047  RH  033%=      5-min Rain = 0
KKN1 111615Z 01020G26KT 11/M05 A3024 RMK A01 T01081049  RH  033%=      5-min Rain = 0
KKN1 111620Z 01019G24KT 11/M05 A3024 RMK A01 T01091050  RH  033%=      5-min Rain = 0
KKN1 111625Z 01016G24KT 11/M05 A3025 RMK A01 T01111049  RH  033%=      5-min Rain = 0
KKN1 111630Z 01020G26KT 11/M06 A3026 RMK A01 T01091058  RH  031%=      5-min Rain = 0
KKN1 111635Z 01018G23KT 11/M06 A3026 RMK A01 T01101056  RH  031%=      5-min Rain = 0
KKN1 111640Z 01017G22KT 11/M06 A3026 RMK A01 T01101057  RH  031%=      5-min Rain = 0
KKN1 111645Z 36020G26KT 11/M07 A3026 RMK A01 T01101065  RH  029%=      5-min Rain = 0
KKN1 111650Z 01018G25KT 11/M07 A3027 RMK A01 T01091069  RH  028%=      5-min Rain = 0
KKN1 111655Z 00018G23KT 11/M06 A3027 RMK A01 T01111064  RH  029%=      5-min Rain = 0
KKN1 111700Z 01016G22KT 11/M06 A3027 RMK A01 T01121060  RH  030%=      5-min Rain = 0
KKN1 111705Z 35017G22KT 11/M06 A3027 RMK A01 T01131062  RH  029%=      5-min Rain = 0
KKN1 111710Z 36018KT 11/M06 A3027 RMK A01 T01131064  RH  029%=      5-min Rain = 0
KKN1 111715Z 36016G22KT 11/M07 A3027 RMK A01 T01141065  RH  028%=      5-min Rain = 0
KKN1 111720Z 00018G23KT 12/M07 A3027 RMK A01 T01161070  RH  027%=      5-min Rain = 0
KKN1 111725Z 00016G22KT 12/M07 A3027 RMK A01 T01161069  RH  027%=      5-min Rain = 0
KKN1 111730Z 01017G22KT 12/M08 A3027 RMK A01 T01171079  RH  025%=      5-min Rain = 0
KKN1 111735Z 00017G23KT 12/M08 A3027 RMK A01 T01191083  RH  024%=      5-min Rain = 0
KKN1 111740Z 00016G23KT 13/M08 A3027 RMK A01 T01261082  RH  023%=      5-min Rain = 0
KKN1 111745Z 01018G25KT 13/M09 A3027 RMK A01 T01311088  RH  021%=      5-min Rain = 0
KKN1 111750Z 01017G22KT 13/M09 A3027 RMK A01 T01291087  RH  022%=      5-min Rain = 0
KKN1 111755Z 01016G21KT 13/M09 A3027 RMK A01 T01291087  RH  022%=      5-min Rain = 0
KKN1 111800Z 36018G23KT 13/M09 A3027 RMK A01 T01301089  RH  021%=      5-min Rain = 0
KKN1 111805Z 35017G22KT 14/M09 A3026 RMK A01 T01361087  RH  021%=      5-min Rain = 0
KKN1 111810Z 00015G21KT 14/M09 A3026 RMK A01 T01391088  RH  020%=      5-min Rain = 0
KKN1 111815Z 36018G24KT 14/M09 A3026 RMK A01 T01411089  RH  020%=      5-min Rain = 0
KKN1 111820Z 36014G25KT 14/M09 A3026 RMK A01 T01391089  RH  020%=      5-min Rain = 0
KKN1 111825Z 36018G23KT 14/M10 A3026 RMK A01 T01371095  RH  019%=      5-min Rain = 0
KKN1 111830Z 00015G20KT 14/M10 A3026 RMK A01 T01361095  RH  019%=      5-min Rain = 0
KKN1 111835Z 35014G21KT 14/M09 A3026 RMK A01 T01381094  RH  019%=      5-min Rain = 0
KKN1 111840Z 00016G25KT 15/M09 A3026 RMK A01 T01451092  RH  019%=      5-min Rain = 0
KKN1 111845Z 01015G21KT 15/M10 A3026 RMK A01 T01501095  RH  018%=      5-min Rain = 0
KKN1 111850Z 01018G25KT 15/M11 A3026 RMK A01 T01481105  RH  017%=      5-min Rain = 0
KKN1 111855Z 02017G25KT 14/M11 A3026 RMK A01 T01431108  RH  017%=      5-min Rain = 0
KKN1 111900Z 01015G21KT 15/M11 A3025 RMK A01 T01481106  RH  016%=      5-min Rain = 0
KKN1 111905Z 02017G22KT 14/M11 A3025 RMK A01 T01431105  RH  017%=      5-min Rain = 0
KKN1 111910Z 01017G22KT 14/M10 A3025 RMK A01 T01421101  RH  018%=      5-min Rain = 0
KKN1 111915Z 36016G24KT 15/M10 A3025 RMK A01 T01451101  RH  017%=      5-min Rain = 0
KKN1 111920Z 01017G23KT 15/M11 A3025 RMK A01 T01461107  RH  017%=      5-min Rain = 0
KKN1 111925Z 01017KT 14/M11 A3025 RMK A01 T01431107  RH  017%=      5-min Rain = 0
KKN1 111930Z 35017G26KT 15/M11 A3025 RMK A01 T01451105  RH  017%=      5-min Rain = 0
KKN1 111935Z 36016G22KT 15/M11 A3025 RMK A01 T01461107  RH  017%=      5-min Rain = 0
KKN1 111940Z 36020G27KT 14/M11 A3025 RMK A01 T01441106  RH  017%=      5-min Rain = 0
KKN1 111945Z 00017G25KT 15/M11 A3025 RMK A01 T01451108  RH  017%=      5-min Rain = 0
KKN1 111950Z 35018G24KT 15/M11 A3024 RMK A01 T01471106  RH  017%=      5-min Rain = 0
KKN1 111955Z 34017G22KT 14/M11 A3024 RMK A01 T01431109  RH  017%=      5-min Rain = 0
KKN1 112000Z 01014G21KT 14/M11 A3025 RMK A01 T01431106  RH  017%=      5-min Rain = 0
KKN1 112005Z 01014G19KT 15/M11 A3025 RMK A01 T01461108  RH  016%=      5-min Rain = 0
KKN1 112010Z 35016G22KT 15/M11 A3024 RMK A01 T01501106  RH  016%=      5-min Rain = 0
KKN1 112015Z 35014G21KT 15/M11 A3024 RMK A01 T01491106  RH  016%=      5-min Rain = 0
KKN1 112020Z 00015G24KT 15/M11 A3024 RMK A01 T01491108  RH  016%=      5-min Rain = 0
KKN1 112025Z 01013KT 15/M11 A3024 RMK A01 T01451113  RH  016%=      5-min Rain = 0
KKN1 112030Z 01011G16KT 15/M11 A3024 RMK A01 T01481112  RH  016%=      5-min Rain = 0
KKN1 112035Z 36011G17KT 15/M11 A3023 RMK A01 T01491112  RH  016%=      5-min Rain = 0
KKN1 112040Z 36012G17KT 15/M11 A3023 RMK A01 T01531112  RH  015%=      5-min Rain = 0
KKN1 112045Z 35014G19KT 16/M11 A3023 RMK A01 T01591114  RH  014%=      5-min Rain = 0
KKN1 112050Z 00013G20KT 16/M12 A3023 RMK A01 T01631115  RH  014%=      5-min Rain = 0
KKN1 112055Z 01013G18KT 17/M12 A3023 RMK A01 T01651117  RH  014%=      5-min Rain = 0
KKN1 112100Z 35016G23KT 17/M12 A3023 RMK A01 T01671118  RH  013%=      5-min Rain = 0
KKN1 112105Z 00016G23KT 17/M12 A3023 RMK A01 T01651119  RH  013%=      5-min Rain = 0
KKN1 112110Z 35013G19KT 17/M12 A3022 RMK A01 T01661119  RH  013%=      5-min Rain = 0
KKN1 112115Z 34014G24KT 17/M12 A3022 RMK A01 T01701121  RH  013%=      5-min Rain = 0
KKN1 112120Z 01015G21KT 17/M12 A3022 RMK A01 T01681123  RH  013%=      5-min Rain = 0
KKN1 112125Z 01010KT 17/M12 A3022 RMK A01 T01711121  RH  013%=      5-min Rain = 0
KKN1 112130Z 36013G18KT 17/M12 A3022 RMK A01 T01711122  RH  012%=      5-min Rain = 0
KKN1 112135Z 36012G17KT 17/M13 A3022 RMK A01 T01691125  RH  012%=      5-min Rain = 0
KKN1 112140Z 00012G20KT 16/M13 A3021 RMK A01 T01631129  RH  012%=      5-min Rain = 0
KKN1 112145Z 01014G20KT 16/M13 A3021 RMK A01 T01611133  RH  012%=      5-min Rain = 0
KKN1 112150Z 01013G20KT 16/M13 A3021 RMK A01 T01621131  RH  012%=      5-min Rain = 0
KKN1 112155Z 03013KT 16/M13 A3021 RMK A01 T01631133  RH  012%=      5-min Rain = 0
KKN1 112200Z 02013G19KT 16/M14 A3021 RMK A01 T01631139  RH  012%=      5-min Rain = 0
KKN1 112205Z 03014G20KT 16/M14 A3021 RMK A01 T01631137  RH  012%=      5-min Rain = 0
KKN1 112210Z 00014G21KT 17/M14 A3021 RMK A01 T01661140  RH  011%=      5-min Rain = 0
KKN1 112215Z 01013KT 17/M14 A3021 RMK A01 T01691139  RH  011%=      5-min Rain = 0
KKN1 112220Z 02015G22KT 17/M15 A3021 RMK A01 T01671145  RH  011%=      5-min Rain = 0
KKN1 112225Z 00015G21KT 17/M15 A3021 RMK A01 T01651149  RH  010%=      5-min Rain = 0
KKN1 112230Z 01012G18KT 17/M14 A3021 RMK A01 T01661143  RH  011%=      5-min Rain = 0
KKN1 112235Z 01013G19KT 17/M13 A3022 RMK A01 T01671129  RH  012%=      5-min Rain = 0
KKN1 112240Z 00014G20KT 17/M13 A3022 RMK A01 T01661127  RH  012%=      5-min Rain = 0
KKN1 112245Z 01015G22KT 16/M13 A3022 RMK A01 T01621128  RH  013%=      5-min Rain = 0
KKN1 112250Z 01016KT 16/M13 A3022 RMK A01 T01551127  RH  013%=      5-min Rain = 0
KKN1 112255Z 01014G20KT 16/M12 A3022 RMK A01 T01581116  RH  014%=      5-min Rain = 0
KKN1 112300Z 02012G20KT 16/M11 A3022 RMK A01 T01611111  RH  015%=      5-min Rain = 0
KKN1 112305Z 01015KT 16/M11 A3023 RMK A01 T01601108  RH  015%=      5-min Rain = 0
KKN1 112310Z 01014G21KT 16/M10 A3023 RMK A01 T01591102  RH  016%=      5-min Rain = 0
KKN1 112315Z 02014G19KT 16/M10 A3023 RMK A01 T01581097  RH  017%=      5-min Rain = 0
KKN1 112320Z 01014KT 16/M10 A3023 RMK A01 T01571102  RH  016%=      5-min Rain = 0
KKN1 112325Z 01013KT 16/M10 A3023 RMK A01 T01571100  RH  016%=      5-min Rain = 0
KKN1 112330Z 02014G19KT 16/M09 A3023 RMK A01 T01551094  RH  017%=      5-min Rain = 0
KKN1 112335Z 01014G19KT 15/M09 A3023 RMK A01 T01501092  RH  018%=      5-min Rain = 0
KKN1 112340Z 01012G18KT 15/M09 A3023 RMK A01 T01501087  RH  019%=      5-min Rain = 0
KKN1 112345Z 02014KT 15/M08 A3024 RMK A01 T01511083  RH  019%=      5-min Rain = 0
KKN1 112350Z 01013G19KT 15/M08 A3024 RMK A01 T01501081  RH  020%=      5-min Rain = 0
KKN1 112355Z 01012KT 15/M08 A3024 RMK A01 T01511080  RH  020%=      5-min Rain = 0
KKN1 120000Z 01010KT 15/M08 A3024 RMK A01 T01521077  RH  020%=      5-min Rain = 0
KKN1 120005Z 01013G20KT 15/M08 A3024 RMK A01 T01531076  RH  020%=      5-min Rain = 0
KKN1 120010Z 02014G19KT 15/M07 A3025 RMK A01 T01501073  RH  021%=      5-min Rain = 0
KKN1 120015Z 01012G17KT 15/M07 A3025 RMK A01 T01471074  RH  021%=      5-min Rain = 0
KKN1 120020Z 01010KT 14/M07 A3025 RMK A01 T01431072  RH  022%=      5-min Rain = 0
KKN1 120025Z 01010KT 14/M07 A3025 RMK A01 T01411070  RH  023%=      5-min Rain = 0
KKN1 120030Z 02011KT 14/M07 A3025 RMK A01 T01401069  RH  023%=      5-min Rain = 0
KKN1 120035Z 02012KT 14/M07 A3026 RMK A01 T01391068  RH  023%=      5-min Rain = 0
KKN1 120040Z 02012G17KT 14/M07 A3026 RMK A01 T01381068  RH  024%=      5-min Rain = 0
KKN1 120045Z 02010KT 14/M07 A3026 RMK A01 T01351068  RH  024%=      5-min Rain = 0
KKN1 120050Z 02010G15KT 13/M07 A3026 RMK A01 T01331068  RH  024%=      5-min Rain = 0
KKN1 120055Z 02010KT 13/M07 A3026 RMK A01 T01311067  RH  025%=      5-min Rain = 0
KKN1 120100Z 02010KT 13/M07 A3026 RMK A01 T01301067  RH  025%=      5-min Rain = 0
KKN1 120105Z 02009KT 13/M07 A3027 RMK A01 T01291067  RH  025%=      5-min Rain = 0
KKN1 120110Z 02008KT 13/M07 A3027 RMK A01 T01271067  RH  025%=      5-min Rain = 0
KKN1 120115Z 02008KT 13/M07 A3027 RMK A01 T01261067  RH  026%=      5-min Rain = 0
KKN1 120120Z 03007KT 12/M07 A3027 RMK A01 T01231067  RH  026%=      5-min Rain = 0
KKN1 120125Z 03007KT 12/M07 A3027 RMK A01 T01201065  RH  027%=      5-min Rain = 0
KKN1 120130Z 03008KT 12/M06 A3027 RMK A01 T01201063  RH  028%=      5-min Rain = 0
KKN1 120135Z 03009KT 12/M06 A3027 RMK A01 T01171061  RH  029%=      5-min Rain = 0
KKN1 120140Z 03009KT 12/M06 A3028 RMK A01 T01171059  RH  029%=      5-min Rain = 0
KKN1 120145Z 03009KT 12/M06 A3028 RMK A01 T01171057  RH  029%=      5-min Rain = 0
KKN1 120150Z 04008KT 11/M06 A3029 RMK A01 T01141057  RH  030%=      5-min Rain = 0
KKN1 120155Z 04009KT 11/M06 A3029 RMK A01 T01121056  RH  031%=      5-min Rain = 0
KKN1 120200Z 04008KT 11/M06 A3029 RMK A01 T01101055  RH  031%=      5-min Rain = 0
KKN1 120205Z 04007KT 11/M06 A3029 RMK A01 T01081055  RH  032%=      5-min Rain = 0
KKN1 120210Z 04007KT 11/M06 A303 RMK A01 T01061055  RH  032%=      5-min Rain = 0
KKN1 120215Z 04007KT 11/M05 A303 RMK A01 T01051054  RH  033%=      5-min Rain = 0
KKN1 120220Z 03007KT 10/M05 A303 RMK A01 T01041054  RH  033%=      5-min Rain = 0
KKN1 120225Z 03008KT 10/M05 A303 RMK A01 T01041054  RH  033%=      5-min Rain = 0
KKN1 120230Z 03008KT 11/M05 A3031 RMK A01 T01051054  RH  033%=      5-min Rain = 0
KKN1 120235Z 04007KT 10/M05 A3031 RMK A01 T01041054  RH  033%=      5-min Rain = 0
KKN1 120240Z 03007KT 10/M05 A3031 RMK A01 T01021054  RH  033%=      5-min Rain = 0
KKN1 120245Z 03007KT 10/M05 A3031 RMK A01 T01011054  RH  033%=      5-min Rain = 0
KKN1 120250Z 03007KT 10/M05 A3031 RMK A01 T01001054  RH  034%=      5-min Rain = 0
KKN1 120255Z 03008KT 10/M05 A3032 RMK A01 T01001054  RH  034%=      5-min Rain = 0
KKN1 120300Z 03008KT 10/M05 A3032 RMK A01 T00991054  RH  034%=      5-min Rain = 0
KKN1 120305Z 03007KT 10/M05 A3032 RMK A01 T00981054  RH  034%=      5-min Rain = 0
KKN1 120310Z 03008KT 10/M05 A3032 RMK A01 T00971054  RH  034%=      5-min Rain = 0
KKN1 120315Z 04009KT 10/M05 A3032 RMK A01 T00961054  RH  035%=      5-min Rain = 0
KKN1 120320Z 03009KT 10/M05 A3032 RMK A01 T00961054  RH  035%=      5-min Rain = 0
KKN1 120325Z 03007KT 10/M05 A3033 RMK A01 T00951053  RH  035%=      5-min Rain = 0
KKN1 120330Z 03007KT 09/M05 A3033 RMK A01 T00941053  RH  035%=      5-min Rain = 0
KKN1 120335Z 03006KT 09/M05 A3033 RMK A01 T00921052  RH  036%=      5-min Rain = 0
KKN1 120340Z 03007KT 09/M05 A3033 RMK A01 T00901052  RH  036%=      5-min Rain = 0
KKN1 120345Z 03008KT 09/M05 A3033 RMK A01 T00891052  RH  037%=      5-min Rain = 0
KKN1 120350Z 04007KT 09/M05 A3034 RMK A01 T00881052  RH  037%=      5-min Rain = 0
KKN1 120355Z 04007KT 09/M05 A3034 RMK A01 T00861051  RH  038%=      5-min Rain = 0
KKN1 120400Z 03007KT 08/M05 A3034 RMK A01 T00831051  RH  039%=      5-min Rain = 0
KKN1 120405Z 03007KT 08/M05 A3034 RMK A01 T00821050  RH  039%=      5-min Rain = 0
KKN1 120410Z 04007KT 08/M05 A3034 RMK A01 T00801050  RH  040%=      5-min Rain = 0
KKN1 120415Z 04007KT 08/M05 A3034 RMK A01 T00771049  RH  041%=      5-min Rain = 0
KKN1 120420Z 03007KT 07/M05 A3034 RMK A01 T00741049  RH  042%=      5-min Rain = 0
KKN1 120425Z 04007KT 07/M05 A3034 RMK A01 T00741048  RH  042%=      5-min Rain = 0
KKN1 120430Z 04007KT 07/M05 A3034 RMK A01 T00721048  RH  043%=      5-min Rain = 0
KKN1 120435Z 04007KT 07/M05 A3034 RMK A01 T00711048  RH  043%=      5-min Rain = 0
KKN1 120440Z 04008KT 07/M05 A3034 RMK A01 T00701047  RH  044%=      5-min Rain = 0
KKN1 120445Z 04008KT 07/M05 A3034 RMK A01 T00701046  RH  044%=      5-min Rain = 0
KKN1 120450Z 03007KT 07/M05 A3034 RMK A01 T00681046  RH  045%=      5-min Rain = 0
KKN1 120455Z 03007KT 07/M05 A3034 RMK A01 T00671045  RH  045%=      5-min Rain = 0

Page generated in 0.0269 seconds.